createdAt,value
2022-08-21T00:01:56.332Z,8.40
2022-08-21T00:04:29.254Z,8.10
2022-08-21T00:07:00.621Z,6.00
2022-08-21T00:09:29.082Z,6.60
2022-08-21T00:11:57.525Z,11.88
2022-08-21T00:14:27.006Z,6.60
2022-08-21T00:17:00.673Z,6.45
2022-08-21T00:19:29.474Z,6.90
2022-08-21T00:21:58.334Z,6.10
2022-08-21T00:24:28.496Z,6.72
2022-08-21T00:27:00.991Z,8.60
2022-08-21T00:29:29.385Z,10.45
2022-08-21T00:31:57.828Z,9.88
2022-08-21T00:34:27.829Z,7.85
2022-08-21T00:36:56.207Z,7.85
2022-08-21T00:39:24.617Z,5.78
2022-08-21T00:41:54.464Z,7.22
2022-08-21T00:44:22.850Z,5.60
2022-08-21T00:46:51.626Z,8.35
2022-08-21T00:49:20.272Z,9.48
2022-08-21T00:51:51.901Z,5.53
2022-08-21T00:54:21.725Z,7.32
2022-08-21T00:56:53.296Z,6.60
2022-08-21T00:59:23.568Z,9.90
2022-08-21T01:01:53.209Z,6.95
2022-08-21T01:04:21.845Z,7.63
2022-08-21T01:06:50.238Z,7.03
2022-08-21T01:09:18.937Z,6.30
2022-08-21T01:11:48.137Z,10.20
2022-08-21T01:14:18.216Z,7.00
2022-08-21T01:16:50.388Z,9.57
2022-08-21T01:19:19.318Z,7.75
2022-08-21T01:21:49.272Z,7.95
2022-08-21T01:24:17.700Z,7.07
2022-08-21T01:26:46.738Z,11.30
2022-08-21T01:29:18.610Z,22.30
2022-08-21T01:31:47.055Z,12.73
2022-08-21T01:34:16.649Z,16.98
2022-08-21T01:36:45.589Z,15.07
2022-08-21T01:39:15.547Z,23.02
2022-08-21T01:41:44.062Z,12.52
2022-08-21T01:44:12.577Z,21.58
2022-08-21T01:46:41.027Z,21.80
2022-08-21T01:49:09.594Z,26.98
2022-08-21T01:51:38.079Z,27.63
2022-08-21T01:54:06.593Z,15.13
2022-08-21T01:56:40.391Z,11.38
2022-08-21T01:59:09.174Z,9.35
2022-08-21T02:01:38.234Z,6.88
2022-08-21T02:04:06.738Z,7.00
2022-08-21T02:06:42.702Z,9.10
2022-08-21T02:09:12.822Z,11.52
2022-08-21T02:11:42.909Z,8.65
2022-08-21T02:14:12.321Z,8.25
2022-08-21T02:16:49.315Z,6.78
2022-08-21T02:19:18.276Z,9.80
2022-08-21T02:21:46.808Z,18.85
2022-08-21T02:24:16.732Z,13.38
2022-08-21T02:26:46.485Z,10.75
2022-08-21T02:29:14.962Z,12.88
2022-08-21T02:31:43.525Z,10.80
2022-08-21T02:34:12.093Z,10.82
2022-08-21T02:36:40.934Z,13.02
2022-08-21T02:39:09.421Z,10.93
2022-08-21T02:41:38.232Z,12.98
2022-08-21T02:44:08.077Z,11.68
2022-08-21T02:46:36.474Z,14.32
2022-08-21T02:49:06.053Z,13.10
2022-08-21T02:51:34.518Z,14.93
2022-08-21T02:54:02.895Z,17.85
2022-08-21T02:56:31.642Z,10.77
2022-08-21T02:59:00.265Z,10.55
2022-08-21T03:01:36.889Z,12.82
2022-08-21T03:04:05.409Z,7.82
2022-08-21T03:06:34.721Z,19.13
2022-08-21T03:09:03.172Z,13.88
2022-08-21T03:11:31.637Z,20.85
2022-08-21T03:14:00.357Z,14.00
2022-08-21T03:16:33.087Z,12.07
2022-08-21T03:19:05.610Z,11.18
2022-08-21T03:21:34.556Z,13.88
2022-08-21T03:24:03.063Z,15.57
2022-08-21T03:26:32.835Z,10.50
2022-08-21T03:29:01.657Z,10.13
2022-08-21T03:31:31.968Z,10.48
2022-08-21T03:34:00.427Z,8.38
2022-08-21T03:36:30.252Z,11.82
2022-08-21T03:38:58.957Z,13.02
2022-08-21T03:41:27.362Z,9.18
2022-08-21T03:43:56.109Z,8.65
2022-08-21T03:46:25.612Z,8.90
2022-08-21T03:48:54.276Z,12.55
2022-08-21T03:51:23.281Z,8.45
2022-08-21T03:53:53.080Z,9.90
2022-08-21T03:56:21.857Z,10.38
2022-08-21T03:58:50.284Z,11.20
2022-08-21T04:01:18.997Z,9.60
2022-08-21T04:03:47.398Z,9.18
2022-08-21T04:06:15.882Z,10.40
2022-08-21T04:08:44.698Z,9.80
2022-08-21T04:11:15.741Z,9.05
2022-08-21T04:13:44.441Z,8.07
2022-08-21T04:16:13.974Z,7.55
2022-08-21T04:18:42.494Z,8.77
2022-08-21T04:21:12.160Z,8.93
2022-08-21T04:23:41.881Z,8.25
2022-08-21T04:26:10.440Z,7.50
2022-08-21T04:28:40.359Z,9.10
2022-08-21T04:31:08.804Z,7.07
2022-08-21T04:33:37.509Z,6.78
2022-08-21T04:36:06.349Z,7.60
2022-08-21T04:38:37.494Z,8.43
2022-08-21T04:41:06.404Z,7.72
2022-08-21T04:43:35.093Z,8.15
2022-08-21T04:46:05.078Z,8.98
2022-08-21T04:48:34.017Z,8.48
2022-08-21T04:51:04.352Z,7.90
2022-08-21T04:53:34.933Z,7.45
2022-08-21T04:56:05.418Z,7.10
2022-08-21T04:58:34.774Z,8.35
2022-08-21T05:01:05.023Z,8.18
2022-08-21T05:03:36.817Z,7.88
2022-08-21T05:06:06.477Z,8.80
2022-08-21T05:08:35.771Z,7.75
2022-08-21T05:11:05.330Z,8.35
2022-08-21T05:13:34.132Z,8.57
2022-08-21T05:16:02.601Z,9.85
2022-08-21T05:18:31.019Z,7.65
2022-08-21T05:21:00.981Z,7.85
2022-08-21T05:23:30.438Z,7.38
2022-08-21T05:25:59.361Z,9.05
2022-08-21T05:28:28.163Z,8.52
2022-08-21T05:30:56.727Z,8.90
2022-08-21T05:33:25.170Z,7.68
2022-08-21T05:35:54.011Z,8.23
2022-08-21T05:38:26.911Z,11.68
2022-08-21T05:40:55.408Z,8.23
2022-08-21T05:43:24.269Z,7.45
2022-08-21T05:45:52.729Z,7.20
2022-08-21T05:48:22.269Z,7.72
2022-08-21T05:50:51.895Z,8.15
2022-08-21T05:53:21.250Z,8.27
2022-08-21T05:55:51.347Z,7.72
2022-08-21T05:58:20.632Z,7.90
2022-08-21T06:00:50.441Z,7.15
2022-08-21T06:03:23.736Z,8.75
2022-08-21T06:05:52.401Z,8.15
2022-08-21T06:08:21.138Z,6.78
2022-08-21T06:10:51.336Z,7.95
2022-08-21T06:13:20.406Z,8.30
2022-08-21T06:15:48.865Z,8.48
2022-08-21T06:18:17.673Z,7.80
2022-08-21T06:20:47.059Z,7.78
2022-08-21T06:23:15.460Z,7.18
2022-08-21T06:25:43.857Z,6.20
2022-08-21T06:28:13.841Z,6.15
2022-08-21T06:30:42.438Z,7.60
2022-08-21T06:33:10.834Z,7.55
2022-08-21T06:35:41.525Z,8.23
2022-08-21T06:38:10.300Z,6.03
2022-08-21T06:40:41.835Z,7.63
2022-08-21T06:43:18.912Z,7.07
2022-08-21T06:45:47.362Z,6.00
2022-08-21T06:48:19.161Z,6.85
2022-08-21T06:50:48.186Z,6.88
2022-08-21T06:53:18.605Z,7.28
2022-08-21T06:55:47.298Z,5.95
2022-08-21T06:58:17.583Z,6.20
2022-08-21T07:00:48.160Z,7.13
2022-08-21T07:03:21.490Z,7.85
2022-08-21T07:05:49.823Z,6.28
2022-08-21T07:08:18.686Z,5.13
2022-08-21T07:10:47.786Z,6.18
2022-08-21T07:13:18.014Z,9.32
2022-08-21T07:15:46.978Z,4.93
2022-08-21T07:18:15.288Z,5.95
2022-08-21T07:20:44.539Z,5.00
2022-08-21T07:23:18.709Z,6.15
2022-08-21T07:25:46.816Z,6.25
2022-08-21T07:28:16.366Z,7.38
2022-08-21T07:30:44.766Z,5.03
2022-08-21T07:33:13.408Z,5.88
2022-08-21T07:35:41.853Z,5.07
2022-08-21T07:38:10.158Z,5.38
2022-08-21T07:40:38.677Z,5.88
2022-08-21T07:43:06.838Z,5.97
2022-08-21T07:45:36.460Z,7.05
2022-08-21T07:48:05.310Z,4.93
2022-08-21T07:50:33.878Z,5.97
2022-08-21T07:53:02.038Z,6.18
2022-08-21T07:55:30.666Z,5.03
2022-08-21T07:57:59.063Z,5.30
2022-08-21T08:00:30.119Z,6.45
2022-08-21T08:03:01.149Z,5.93
2022-08-21T08:05:31.918Z,4.88
2022-08-21T08:08:00.554Z,7.32
2022-08-21T08:10:29.574Z,6.82
2022-08-21T08:12:57.964Z,6.60
2022-08-21T08:15:28.190Z,4.60
2022-08-21T08:17:58.098Z,5.28
2022-08-21T08:20:28.478Z,6.35
2022-08-21T08:22:57.571Z,3.72
2022-08-21T08:25:27.691Z,4.57
2022-08-21T08:28:16.515Z,7.03
2022-08-21T08:30:46.048Z,5.85
2022-08-21T08:33:14.248Z,4.40
2022-08-21T08:35:44.626Z,5.95
2022-08-21T08:38:12.855Z,5.07
2022-08-21T08:40:46.068Z,5.82
2022-08-21T08:43:14.933Z,6.05
2022-08-21T08:45:47.706Z,5.40
2022-08-21T08:48:21.657Z,5.20
2022-08-21T08:50:57.386Z,6.05
2022-08-21T08:53:30.354Z,5.15
2022-08-21T08:56:02.949Z,5.22
2022-08-21T08:58:33.493Z,5.45
2022-08-21T09:01:02.550Z,5.15
2022-08-21T09:03:32.546Z,6.97
2022-08-21T09:06:12.566Z,4.57
2022-08-21T09:08:56.477Z,5.43
2022-08-21T09:11:31.174Z,7.47
2022-08-21T09:14:19.109Z,5.50
2022-08-21T09:16:53.128Z,5.65
2022-08-21T09:19:38.497Z,4.90
2022-08-21T09:22:13.317Z,7.00
2022-08-21T09:24:52.015Z,5.55
2022-08-21T09:27:21.921Z,4.75
2022-08-21T09:29:53.881Z,4.95
2022-08-21T09:32:37.433Z,4.60
2022-08-21T09:35:09.847Z,7.28
2022-08-21T09:37:52.607Z,7.03
2022-08-21T09:40:28.775Z,4.53
2022-08-21T09:42:58.446Z,6.43
2022-08-21T09:45:26.686Z,5.43
2022-08-21T09:47:54.883Z,6.15
2022-08-21T09:50:25.656Z,4.30
2022-08-21T09:52:59.675Z,6.05
2022-08-21T09:55:51.673Z,4.82
2022-08-21T09:58:21.921Z,5.35
2022-08-21T10:01:00.667Z,4.60
2022-08-21T10:03:29.737Z,6.05
2022-08-21T10:06:02.862Z,4.47
2022-08-21T10:08:35.102Z,4.60
2022-08-21T10:11:07.632Z,6.10
2022-08-21T10:13:50.028Z,4.35
2022-08-21T10:16:30.645Z,5.30
2022-08-21T10:19:09.404Z,4.70
2022-08-21T10:21:45.997Z,5.15
2022-08-21T10:24:31.187Z,4.75
2022-08-21T10:27:10.879Z,7.53
2022-08-21T10:29:49.725Z,5.20
2022-08-21T10:32:39.737Z,5.60
2022-08-21T10:35:14.608Z,4.18
2022-08-21T10:37:54.158Z,4.88
2022-08-21T10:40:29.926Z,6.13
2022-08-21T10:43:10.665Z,5.28
2022-08-21T10:45:55.534Z,4.35
2022-08-21T10:48:31.051Z,4.07
2022-08-21T10:51:06.362Z,6.70
2022-08-21T10:53:44.439Z,3.95
2022-08-21T10:56:19.060Z,5.40
2022-08-21T10:58:59.358Z,3.15
2022-08-21T11:01:33.522Z,4.63
2022-08-21T11:04:13.640Z,4.60
2022-08-21T11:06:47.427Z,3.63
2022-08-21T11:09:19.375Z,3.58
2022-08-21T11:12:10.890Z,2.38
2022-08-21T11:14:50.652Z,4.68
2022-08-21T11:17:24.270Z,3.20
2022-08-21T11:19:56.847Z,3.75
2022-08-21T11:22:30.859Z,5.00
2022-08-21T11:25:02.795Z,5.57
2022-08-21T11:27:38.789Z,3.65
2022-08-21T11:30:09.232Z,4.88
2022-08-21T11:32:47.161Z,4.22
2022-08-21T11:35:20.465Z,6.03
2022-08-21T11:37:54.877Z,4.75
2022-08-21T11:40:46.621Z,4.05
2022-08-21T11:43:22.351Z,4.03
2022-08-21T11:45:52.138Z,7.10
2022-08-21T11:48:28.419Z,5.78
2022-08-21T11:50:57.925Z,3.75
2022-08-21T11:53:29.507Z,3.67
2022-08-21T11:56:00.677Z,4.45
2022-08-21T11:58:33.505Z,4.43
2022-08-21T12:01:03.665Z,3.28
2022-08-21T12:03:34.115Z,5.35
2022-08-21T12:06:03.603Z,2.92
2022-08-21T12:08:33.035Z,4.35
2022-08-21T12:11:04.340Z,4.20
2022-08-21T12:13:40.785Z,5.80
2022-08-21T12:16:15.675Z,3.40
2022-08-21T12:18:44.815Z,4.40
2022-08-21T12:21:24.610Z,4.93
2022-08-21T12:24:03.407Z,3.55
2022-08-21T12:26:32.997Z,5.60
2022-08-21T12:29:14.690Z,4.43
2022-08-21T12:31:54.015Z,3.90
2022-08-21T12:34:23.036Z,4.80
2022-08-21T12:36:56.040Z,5.32
2022-08-21T12:39:26.334Z,4.32
2022-08-21T12:42:01.809Z,3.25
2022-08-21T12:44:36.564Z,4.97
2022-08-21T12:47:06.749Z,4.35
2022-08-21T12:49:37.897Z,5.53
2022-08-21T12:52:10.772Z,3.53
2022-08-21T12:54:41.165Z,4.57
2022-08-21T12:57:09.822Z,3.45
2022-08-21T12:59:43.555Z,2.80
2022-08-21T13:02:16.644Z,4.43
2022-08-21T13:04:45.823Z,2.40
2022-08-21T13:07:16.440Z,4.53
2022-08-21T13:09:50.669Z,2.85
2022-08-21T13:12:20.366Z,3.08
2022-08-21T13:14:51.498Z,2.13
2022-08-21T13:17:23.478Z,2.35
2022-08-21T13:19:58.561Z,3.00
2022-08-21T13:22:33.891Z,3.17
2022-08-21T13:25:06.505Z,2.08
2022-08-21T13:27:36.097Z,2.47
2022-08-21T13:30:11.842Z,3.40
2022-08-21T13:32:42.812Z,2.33
2022-08-21T13:35:15.269Z,2.90
2022-08-21T13:37:44.151Z,3.35
2022-08-21T13:40:14.478Z,2.13
2022-08-21T13:42:44.137Z,3.05
2022-08-21T13:45:18.221Z,2.33
2022-08-21T13:47:48.674Z,1.70
2022-08-21T13:50:18.369Z,3.35
2022-08-21T13:52:52.389Z,2.13
2022-08-21T13:55:20.789Z,2.30
2022-08-21T13:57:49.158Z,1.88
2022-08-21T14:00:20.883Z,2.97
2022-08-21T14:02:51.795Z,2.88
2022-08-21T14:05:23.776Z,2.67
2022-08-21T14:07:53.439Z,1.90
2022-08-21T14:10:22.910Z,1.75
2022-08-21T14:12:53.921Z,3.50
2022-08-21T14:15:27.441Z,1.80
2022-08-21T14:17:55.936Z,2.17
2022-08-21T14:20:31.610Z,2.13
2022-08-21T14:23:01.216Z,2.05
2022-08-21T14:25:31.487Z,7.60
2022-08-21T14:28:01.236Z,1.70
2022-08-21T14:30:34.265Z,2.75
2022-08-21T14:33:06.346Z,5.30
2022-08-21T14:35:35.701Z,3.22
2022-08-21T14:38:04.238Z,2.38
2022-08-21T14:40:33.247Z,2.60
2022-08-21T14:43:01.662Z,1.65
2022-08-21T14:45:33.188Z,2.38
2022-08-21T14:48:02.151Z,1.48
2022-08-21T14:50:30.524Z,2.97
2022-08-21T14:52:58.998Z,1.50
2022-08-21T14:55:27.756Z,1.85
2022-08-21T14:57:57.603Z,3.25
2022-08-21T15:00:35.872Z,1.95
2022-08-21T15:03:06.305Z,1.02
2022-08-21T15:05:34.760Z,2.55
2022-08-21T15:08:03.400Z,1.50
2022-08-21T15:10:33.123Z,1.33
2022-08-21T15:13:01.833Z,2.42
2022-08-21T15:15:30.924Z,1.35
2022-08-21T15:17:59.343Z,1.77
2022-08-21T15:20:29.121Z,2.47
2022-08-21T15:22:57.516Z,2.05
2022-08-21T15:25:26.233Z,2.75
2022-08-21T15:27:54.598Z,1.63
2022-08-21T15:30:23.093Z,1.95
2022-08-21T15:32:51.504Z,2.17
2022-08-21T15:35:19.918Z,1.02
2022-08-21T15:37:49.692Z,1.35
2022-08-21T15:40:18.804Z,1.77
2022-08-21T15:42:47.562Z,1.60
2022-08-21T15:45:16.132Z,1.15
2022-08-21T15:47:45.908Z,1.50
2022-08-21T15:50:14.897Z,1.05
2022-08-21T15:52:43.354Z,2.22
2022-08-21T15:55:16.666Z,1.88
2022-08-21T15:57:57.927Z,2.13
2022-08-21T16:00:27.309Z,2.35
2022-08-21T16:02:58.044Z,2.30
2022-08-21T16:05:26.609Z,2.78
2022-08-21T16:07:55.305Z,2.72
2022-08-21T16:10:28.507Z,2.15
2022-08-21T16:13:00.598Z,1.77
2022-08-21T16:15:29.885Z,2.53
2022-08-21T16:17:58.507Z,2.72
2022-08-21T16:20:28.129Z,1.95
2022-08-21T16:22:57.239Z,4.57
2022-08-21T16:25:27.168Z,2.05
2022-08-21T16:27:59.524Z,2.47
2022-08-21T16:30:28.714Z,2.45
2022-08-21T16:32:57.401Z,3.17
2022-08-21T16:35:26.224Z,2.08
2022-08-21T16:37:54.744Z,1.77
2022-08-21T16:40:24.117Z,2.28
2022-08-21T16:42:54.049Z,2.58
2022-08-21T16:45:22.810Z,2.10
2022-08-21T16:47:51.358Z,2.67
2022-08-21T16:50:22.501Z,3.08
2022-08-21T16:52:51.152Z,5.35
2022-08-21T16:55:19.774Z,3.45
2022-08-21T16:57:48.187Z,2.80
2022-08-21T17:00:18.302Z,4.65
2022-08-21T17:02:49.007Z,3.53
2022-08-21T17:05:17.405Z,2.78
2022-08-21T17:07:46.399Z,5.85
2022-08-21T17:10:15.806Z,2.33
2022-08-21T17:12:46.455Z,2.22
2022-08-21T17:15:21.890Z,4.00
2022-08-21T17:17:52.438Z,3.58
2022-08-21T17:20:20.876Z,4.05
2022-08-21T17:22:49.388Z,2.17
2022-08-21T17:25:18.148Z,3.50
2022-08-21T17:27:48.003Z,3.67
2022-08-21T17:30:17.096Z,2.92
2022-08-21T17:32:46.322Z,4.25
2022-08-21T17:35:16.102Z,3.92
2022-08-21T17:37:44.596Z,4.00
2022-08-21T17:40:15.372Z,4.03
2022-08-21T17:42:45.090Z,2.33
2022-08-21T17:45:15.297Z,2.38
2022-08-21T17:47:43.745Z,2.88
2022-08-21T17:50:13.700Z,3.97
2022-08-21T17:52:44.651Z,3.45
2022-08-21T17:55:13.107Z,4.07
2022-08-21T17:57:42.122Z,3.30
2022-08-21T18:00:12.865Z,4.07
2022-08-21T18:02:41.561Z,3.95
2022-08-21T18:05:11.765Z,8.30
2022-08-21T18:07:40.347Z,6.65
2022-08-21T18:10:12.235Z,9.40
2022-08-21T18:12:42.089Z,7.32
2022-08-21T18:15:11.722Z,4.68
2022-08-21T18:17:44.961Z,4.85
2022-08-21T18:20:13.645Z,4.88
2022-08-21T18:22:42.109Z,6.43
2022-08-21T18:25:12.916Z,4.38
2022-08-21T18:27:42.642Z,5.00
2022-08-21T18:30:12.872Z,3.35
2022-08-21T18:32:41.617Z,3.63
2022-08-21T18:35:11.444Z,3.63
2022-08-21T18:37:39.925Z,6.97
2022-08-21T18:40:09.599Z,4.95
2022-08-21T18:42:41.125Z,6.97
2022-08-21T18:45:13.301Z,6.97
2022-08-21T18:47:43.563Z,5.60
2022-08-21T18:50:13.206Z,7.35
2022-08-21T18:52:52.904Z,6.90
2022-08-21T18:55:23.140Z,4.07
2022-08-21T18:57:55.984Z,4.32
2022-08-21T19:00:28.853Z,7.55
2022-08-21T19:02:57.436Z,6.25
2022-08-21T19:05:26.175Z,7.95
2022-08-21T19:07:55.483Z,5.03
2022-08-21T19:10:27.663Z,10.90
2022-08-21T19:13:15.400Z,11.15
2022-08-21T19:15:46.723Z,5.32
2022-08-21T19:18:19.374Z,3.92
2022-08-21T19:20:49.764Z,6.03
2022-08-21T19:23:18.992Z,5.85
2022-08-21T19:26:00.514Z,5.45
2022-08-21T19:28:31.914Z,4.65
2022-08-21T19:31:02.040Z,3.72
2022-08-21T19:33:35.225Z,4.53
2022-08-21T19:36:05.075Z,6.65
2022-08-21T19:38:34.010Z,6.10
2022-08-21T19:41:02.614Z,5.88
2022-08-21T19:43:33.908Z,3.95
2022-08-21T19:46:02.745Z,5.68
2022-08-21T19:48:31.863Z,4.25
2022-08-21T19:51:00.304Z,4.85
2022-08-21T19:53:29.131Z,5.55
2022-08-21T19:55:57.582Z,4.65
2022-08-21T19:58:30.481Z,4.78
2022-08-21T20:01:00.535Z,5.53
2022-08-21T20:03:29.177Z,4.88
2022-08-21T20:05:57.745Z,4.20
2022-08-21T20:08:28.041Z,5.57
2022-08-21T20:10:59.802Z,6.32
2022-08-21T20:13:33.983Z,4.38
2022-08-21T20:16:04.399Z,8.45
2022-08-21T20:18:34.454Z,4.35
2022-08-21T20:21:04.789Z,3.33
2022-08-21T20:23:34.231Z,5.82
2022-08-21T20:26:02.850Z,5.90
2022-08-21T20:28:34.745Z,5.40
2022-08-21T20:31:04.932Z,5.28
2022-08-21T20:33:38.178Z,11.45
2022-08-21T20:36:06.948Z,10.70
2022-08-21T20:38:35.572Z,5.97
2022-08-21T20:41:09.968Z,12.95
2022-08-21T20:43:50.823Z,5.38
2022-08-21T20:46:23.217Z,5.47
2022-08-21T20:48:51.948Z,6.53
2022-08-21T20:51:22.740Z,4.35
2022-08-21T20:53:54.114Z,6.15
2022-08-21T20:56:31.573Z,5.15
2022-08-21T20:59:03.707Z,5.13
2022-08-21T21:01:34.693Z,4.05
2022-08-21T21:04:10.030Z,8.27
2022-08-21T21:06:45.336Z,6.50
2022-08-21T21:09:21.167Z,7.93
2022-08-21T21:11:52.105Z,5.80
2022-08-21T21:14:23.480Z,12.07
2022-08-21T21:16:55.285Z,5.15
2022-08-21T21:19:28.453Z,10.43
2022-08-21T21:22:00.497Z,9.02
2022-08-21T21:24:33.602Z,7.80
2022-08-21T21:27:12.022Z,7.10
2022-08-21T21:29:42.041Z,4.90
2022-08-21T21:32:17.858Z,5.97
2022-08-21T21:34:50.994Z,4.68
2022-08-21T21:37:25.560Z,5.10
2022-08-21T21:39:56.568Z,7.90
2022-08-21T21:42:30.358Z,5.35
2022-08-21T21:45:09.361Z,4.72
2022-08-21T21:47:46.125Z,4.88
2022-08-21T21:50:22.774Z,4.93
2022-08-21T21:52:59.493Z,5.85
2022-08-21T21:55:34.480Z,5.40
2022-08-21T21:58:16.835Z,3.85
2022-08-21T22:00:52.128Z,4.00
2022-08-21T22:03:25.270Z,5.03
2022-08-21T22:05:57.552Z,3.70
2022-08-21T22:08:34.834Z,6.15
2022-08-21T22:11:08.679Z,6.05
2022-08-21T22:13:44.360Z,3.03
2022-08-21T22:16:14.707Z,5.13
2022-08-21T22:18:47.234Z,5.38
2022-08-21T22:21:25.400Z,6.93
2022-08-21T22:23:55.745Z,4.38
2022-08-21T22:26:27.789Z,4.75
2022-08-21T22:28:57.542Z,4.30
2022-08-21T22:31:28.200Z,7.93
2022-08-21T22:34:06.872Z,7.35
2022-08-21T22:36:51.641Z,4.85
2022-08-21T22:39:34.430Z,3.25
2022-08-21T22:42:13.891Z,6.00
2022-08-21T22:44:51.679Z,4.78
2022-08-21T22:47:26.432Z,5.53
2022-08-21T22:50:04.370Z,3.72
2022-08-21T22:52:35.307Z,5.53
2022-08-21T22:55:05.088Z,4.72
2022-08-21T22:57:36.379Z,3.80
2022-08-21T23:00:10.906Z,4.47
2022-08-21T23:02:47.554Z,9.07
2022-08-21T23:05:25.097Z,7.22
2022-08-21T23:07:55.535Z,5.75
2022-08-21T23:10:26.779Z,6.68
2022-08-21T23:13:01.056Z,7.13
2022-08-21T23:15:31.626Z,7.18
2022-08-21T23:18:05.324Z,4.78
2022-08-21T23:20:40.909Z,4.50
2022-08-21T23:23:17.847Z,7.07
2022-08-21T23:25:57.595Z,11.32
2022-08-21T23:28:32.778Z,4.65
2022-08-21T23:31:07.209Z,4.72
2022-08-21T23:33:53.049Z,5.13
2022-08-21T23:36:44.605Z,6.55
2022-08-21T23:39:22.082Z,6.13
2022-08-21T23:41:57.592Z,5.38
2022-08-21T23:44:33.173Z,6.38
2022-08-21T23:47:09.254Z,7.38
2022-08-21T23:52:43.382Z,5.20
2022-08-21T23:55:19.685Z,4.75
2022-08-21T23:57:54.878Z,6.45
